sensor_id;sensor_type;location;lat;lon;timestamp;temperature;humidity
1796;DHT22;895;48.230;11.678;2022-08-30T10:48:15;32.30;95.10
1796;DHT22;895;48.230;11.678;2022-08-30T10:53:16;32.90;90.30
1796;DHT22;895;48.230;11.678;2022-08-30T10:55:48;33.00;81.00
1796;DHT22;895;48.230;11.678;2022-08-30T10:58:18;33.10;72.90
1796;DHT22;895;48.230;11.678;2022-08-30T11:00:55;33.00;76.10
1796;DHT22;895;48.230;11.678;2022-08-30T11:06:18;33.10;63.40
1796;DHT22;895;48.230;11.678;2022-08-30T11:09:02;33.40;63.00
1796;DHT22;895;48.230;11.678;2022-08-30T11:11:43;32.60;65.80
1796;DHT22;895;48.230;11.678;2022-08-30T11:14:18;32.70;60.40
1796;DHT22;895;48.230;11.678;2022-08-30T11:16:47;32.70;66.80
1796;DHT22;895;48.230;11.678;2022-08-30T11:19:18;32.30;67.30
1796;DHT22;895;48.230;11.678;2022-08-30T11:21:47;32.10;64.20
1796;DHT22;895;48.230;11.678;2022-08-30T11:24:17;32.40;59.80
1796;DHT22;895;48.230;11.678;2022-08-30T11:26:58;32.40;59.90
1796;DHT22;895;48.230;11.678;2022-08-30T11:29:43;32.20;58.80
1796;DHT22;895;48.230;11.678;2022-08-30T11:35:40;32.40;64.20
1796;DHT22;895;48.230;11.678;2022-08-30T11:38:19;32.30;64.40
1796;DHT22;895;48.230;11.678;2022-08-30T11:40:56;32.10;55.30
1796;DHT22;895;48.230;11.678;2022-08-30T11:43:51;32.00;56.40
1796;DHT22;895;48.230;11.678;2022-08-30T11:46:35;31.70;56.40
1796;DHT22;895;48.230;11.678;2022-08-30T11:54:56;31.10;62.20
1796;DHT22;895;48.230;11.678;2022-08-30T11:57:30;31.70;62.40
1796;DHT22;895;48.230;11.678;2022-08-30T12:00:05;31.50;59.10
1796;DHT22;895;48.230;11.678;2022-08-30T12:02:49;31.70;59.60
1796;DHT22;895;48.230;11.678;2022-08-30T12:05:45;31.70;59.10
1796;DHT22;895;48.230;11.678;2022-08-30T12:08:39;31.50;64.10
1796;DHT22;895;48.230;11.678;2022-08-30T12:14:34;31.40;57.70
1796;DHT22;895;48.230;11.678;2022-08-30T12:17:10;31.80;59.50
1796;DHT22;895;48.230;11.678;2022-08-30T12:19:57;31.20;59.60
1796;DHT22;895;48.230;11.678;2022-08-30T12:22:24;31.40;64.10
1796;DHT22;895;48.230;11.678;2022-08-30T12:24:55;31.60;63.00
1796;DHT22;895;48.230;11.678;2022-08-30T12:27:24;31.70;60.40
1796;DHT22;895;48.230;11.678;2022-08-30T12:29:53;31.50;60.60
1796;DHT22;895;48.230;11.678;2022-08-30T12:32:20;31.40;61.40
1796;DHT22;895;48.230;11.678;2022-08-30T12:34:51;31.50;60.90
1796;DHT22;895;48.230;11.678;2022-08-30T12:37:23;31.40;62.60
1796;DHT22;895;48.230;11.678;2022-08-30T12:40:00;31.00;64.70
1796;DHT22;895;48.230;11.678;2022-08-30T12:42:30;30.50;60.20
1796;DHT22;895;48.230;11.678;2022-08-30T12:44:59;30.80;61.50
1796;DHT22;895;48.230;11.678;2022-08-30T12:47:28;30.80;62.50
1796;DHT22;895;48.230;11.678;2022-08-30T12:49:57;30.90;59.10
1796;DHT22;895;48.230;11.678;2022-08-30T12:52:32;30.90;59.50
1796;DHT22;895;48.230;11.678;2022-08-30T12:55:09;30.60;60.10
1796;DHT22;895;48.230;11.678;2022-08-30T12:57:39;30.70;59.80
1796;DHT22;895;48.230;11.678;2022-08-30T13:00:07;30.80;61.80
1796;DHT22;895;48.230;11.678;2022-08-30T13:02:43;31.00;63.90
1796;DHT22;895;48.230;11.678;2022-08-30T13:05:41;30.90;62.00
1796;DHT22;895;48.230;11.678;2022-08-30T13:08:14;30.60;63.50
1796;DHT22;895;48.230;11.678;2022-08-30T13:10:52;30.50;63.60
1796;DHT22;895;48.230;11.678;2022-08-30T13:13:33;30.50;61.30
1796;DHT22;895;48.230;11.678;2022-08-30T13:16:33;30.10;65.30
1796;DHT22;895;48.230;11.678;2022-08-30T13:19:30;29.80;63.20
1796;DHT22;895;48.230;11.678;2022-08-30T13:21:59;30.00;63.00
1796;DHT22;895;48.230;11.678;2022-08-30T13:24:28;29.60;64.80
1796;DHT22;895;48.230;11.678;2022-08-30T13:26:58;29.80;62.30
1796;DHT22;895;48.230;11.678;2022-08-30T13:29:27;29.90;61.60
1796;DHT22;895;48.230;11.678;2022-08-30T13:31:54;29.80;58.40
1796;DHT22;895;48.230;11.678;2022-08-30T13:34:21;29.40;58.90
1796;DHT22;895;48.230;11.678;2022-08-30T13:36:51;29.10;64.40
1796;DHT22;895;48.230;11.678;2022-08-30T13:39:18;31.80;76.30
1796;DHT22;895;48.230;11.678;2022-08-30T13:41:46;35.20;74.40
1796;DHT22;895;48.230;11.678;2022-08-30T13:44:13;37.70;69.10
1796;DHT22;895;48.230;11.678;2022-08-30T13:46:42;38.90;64.90
1796;DHT22;895;48.230;11.678;2022-08-30T13:49:15;39.10;62.80
1796;DHT22;895;48.230;11.678;2022-08-30T13:51:43;38.70;61.50
1796;DHT22;895;48.230;11.678;2022-08-30T13:54:10;38.20;61.40
1796;DHT22;895;48.230;11.678;2022-08-30T13:56:36;37.40;62.60
1796;DHT22;895;48.230;11.678;2022-08-30T13:59:04;37.00;63.20
1796;DHT22;895;48.230;11.678;2022-08-30T14:01:31;36.30;62.40
1796;DHT22;895;48.230;11.678;2022-08-30T14:03:58;35.60;62.50
1796;DHT22;895;48.230;11.678;2022-08-30T14:06:25;34.80;62.70
1796;DHT22;895;48.230;11.678;2022-08-30T14:08:52;33.80;64.00
1796;DHT22;895;48.230;11.678;2022-08-30T14:11:19;33.30;65.60
1796;DHT22;895;48.230;11.678;2022-08-30T14:13:47;33.10;65.80
1796;DHT22;895;48.230;11.678;2022-08-30T14:16:16;33.50;66.40
1796;DHT22;895;48.230;11.678;2022-08-30T14:18:42;33.90;67.00
1796;DHT22;895;48.230;11.678;2022-08-30T14:21:09;34.20;65.90
1796;DHT22;895;48.230;11.678;2022-08-30T14:23:36;34.00;64.50
1796;DHT22;895;48.230;11.678;2022-08-30T14:26:07;33.50;64.60
1796;DHT22;895;48.230;11.678;2022-08-30T14:28:36;33.20;65.10
1796;DHT22;895;48.230;11.678;2022-08-30T14:31:02;32.70;65.00
1796;DHT22;895;48.230;11.678;2022-08-30T14:33:30;32.20;65.60
1796;DHT22;895;48.230;11.678;2022-08-30T14:35:57;31.90;66.40
1796;DHT22;895;48.230;11.678;2022-08-30T14:38:24;31.80;67.00
1796;DHT22;895;48.230;11.678;2022-08-30T14:40:50;31.70;66.90
1796;DHT22;895;48.230;11.678;2022-08-30T14:43:17;31.60;67.00
1796;DHT22;895;48.230;11.678;2022-08-30T14:45:44;31.70;67.10
1796;DHT22;895;48.230;11.678;2022-08-30T14:48:11;31.60;66.70
1796;DHT22;895;48.230;11.678;2022-08-30T14:50:39;31.50;66.50
1796;DHT22;895;48.230;11.678;2022-08-30T14:53:06;31.30;66.40
1796;DHT22;895;48.230;11.678;2022-08-30T14:55:34;31.10;66.50
1796;DHT22;895;48.230;11.678;2022-08-30T14:58:01;31.10;66.50
1796;DHT22;895;48.230;11.678;2022-08-30T15:00:28;30.80;66.60
1796;DHT22;895;48.230;11.678;2022-08-30T15:02:54;30.60;66.70
1796;DHT22;895;48.230;11.678;2022-08-30T15:05:21;30.50;67.10
1796;DHT22;895;48.230;11.678;2022-08-30T15:07:50;30.30;67.90
1796;DHT22;895;48.230;11.678;2022-08-30T15:10:17;30.20;69.50
1796;DHT22;895;48.230;11.678;2022-08-30T15:12:45;30.20;72.70
1796;DHT22;895;48.230;11.678;2022-08-30T15:15:15;30.40;75.20
1796;DHT22;895;48.230;11.678;2022-08-30T15:17:43;31.00;76.30
1796;DHT22;895;48.230;11.678;2022-08-30T15:20:11;31.90;75.10
1796;DHT22;895;48.230;11.678;2022-08-30T15:22:38;32.90;73.30
1796;DHT22;895;48.230;11.678;2022-08-30T15:25:07;33.90;71.50
1796;DHT22;895;48.230;11.678;2022-08-30T15:27:34;34.60;69.20
1796;DHT22;895;48.230;11.678;2022-08-30T15:30:01;34.90;67.10
1796;DHT22;895;48.230;11.678;2022-08-30T15:32:27;35.00;65.50
1796;DHT22;895;48.230;11.678;2022-08-30T15:34:54;34.90;64.50
1796;DHT22;895;48.230;11.678;2022-08-30T15:37:21;34.50;63.30
1796;DHT22;895;48.230;11.678;2022-08-30T15:39:48;33.70;62.50
1796;DHT22;895;48.230;11.678;2022-08-30T15:42:16;32.90;62.50
1796;DHT22;895;48.230;11.678;2022-08-30T15:44:44;32.10;62.70
1796;DHT22;895;48.230;11.678;2022-08-30T15:47:11;31.30;63.20
1796;DHT22;895;48.230;11.678;2022-08-30T15:49:39;30.60;63.70
1796;DHT22;895;48.230;11.678;2022-08-30T15:52:06;30.20;64.10
1796;DHT22;895;48.230;11.678;2022-08-30T15:54:32;29.70;64.40
1796;DHT22;895;48.230;11.678;2022-08-30T15:56:59;29.30;64.70
1796;DHT22;895;48.230;11.678;2022-08-30T15:59:43;28.90;65.00
1796;DHT22;895;48.230;11.678;2022-08-30T16:02:10;28.60;65.40
1796;DHT22;895;48.230;11.678;2022-08-30T16:04:40;28.30;65.60
1796;DHT22;895;48.230;11.678;2022-08-30T16:07:10;28.10;65.80
1796;DHT22;895;48.230;11.678;2022-08-30T16:09:38;28.00;65.90
1796;DHT22;895;48.230;11.678;2022-08-30T16:12:06;27.80;65.80
1796;DHT22;895;48.230;11.678;2022-08-30T16:14:33;27.60;65.90
1796;DHT22;895;48.230;11.678;2022-08-30T16:17:01;27.40;65.90
1796;DHT22;895;48.230;11.678;2022-08-30T16:19:28;27.30;66.00
1796;DHT22;895;48.230;11.678;2022-08-30T16:21:55;27.20;66.10
1796;DHT22;895;48.230;11.678;2022-08-30T16:24:22;27.10;66.00
1796;DHT22;895;48.230;11.678;2022-08-30T16:26:50;27.00;66.00
1796;DHT22;895;48.230;11.678;2022-08-30T16:29:17;26.90;66.00
1796;DHT22;895;48.230;11.678;2022-08-30T16:31:44;26.70;65.80
1796;DHT22;895;48.230;11.678;2022-08-30T16:34:14;26.60;65.80
1796;DHT22;895;48.230;11.678;2022-08-30T16:36:41;26.50;65.80
1796;DHT22;895;48.230;11.678;2022-08-30T16:39:08;26.40;65.70
1796;DHT22;895;48.230;11.678;2022-08-30T16:41:37;26.20;65.70
1796;DHT22;895;48.230;11.678;2022-08-30T16:44:04;26.10;65.80
1796;DHT22;895;48.230;11.678;2022-08-30T16:46:32;26.00;65.80
1796;DHT22;895;48.230;11.678;2022-08-30T16:48:59;25.90;65.70
1796;DHT22;895;48.230;11.678;2022-08-30T16:51:29;25.80;65.60
1796;DHT22;895;48.230;11.678;2022-08-30T16:53:57;25.70;65.70
1796;DHT22;895;48.230;11.678;2022-08-30T16:56:26;25.50;65.60
1796;DHT22;895;48.230;11.678;2022-08-30T16:58:54;25.40;65.70
1796;DHT22;895;48.230;11.678;2022-08-30T17:01:22;25.30;65.70
1796;DHT22;895;48.230;11.678;2022-08-30T17:03:49;25.20;65.70
1796;DHT22;895;48.230;11.678;2022-08-30T17:06:16;25.10;65.70
1796;DHT22;895;48.230;11.678;2022-08-30T17:08:45;25.00;65.80
1796;DHT22;895;48.230;11.678;2022-08-30T17:11:12;24.80;65.60
1796;DHT22;895;48.230;11.678;2022-08-30T17:13:38;24.70;65.70
1796;DHT22;895;48.230;11.678;2022-08-30T17:16:06;24.60;65.70
1796;DHT22;895;48.230;11.678;2022-08-30T17:18:37;24.50;65.80
1796;DHT22;895;48.230;11.678;2022-08-30T17:21:04;24.40;65.90
1796;DHT22;895;48.230;11.678;2022-08-30T17:23:31;24.20;65.80
1796;DHT22;895;48.230;11.678;2022-08-30T17:25:59;24.10;65.90
1796;DHT22;895;48.230;11.678;2022-08-30T17:28:26;24.00;66.00
1796;DHT22;895;48.230;11.678;2022-08-30T17:30:53;23.90;66.10
1796;DHT22;895;48.230;11.678;2022-08-30T17:33:19;23.70;66.10
1796;DHT22;895;48.230;11.678;2022-08-30T17:35:46;23.60;66.10
1796;DHT22;895;48.230;11.678;2022-08-30T17:38:13;23.50;66.20
1796;DHT22;895;48.230;11.678;2022-08-30T17:40:40;23.30;66.00
1796;DHT22;895;48.230;11.678;2022-08-30T17:43:09;23.10;65.90
1796;DHT22;895;48.230;11.678;2022-08-30T17:45:37;22.90;66.00
1796;DHT22;895;48.230;11.678;2022-08-30T17:48:04;22.70;66.00
1796;DHT22;895;48.230;11.678;2022-08-30T17:50:32;22.60;66.20
1796;DHT22;895;48.230;11.678;2022-08-30T17:52:58;22.40;66.30
1796;DHT22;895;48.230;11.678;2022-08-30T17:55:25;22.30;66.30
1796;DHT22;895;48.230;11.678;2022-08-30T17:57:52;22.20;66.40
1796;DHT22;895;48.230;11.678;2022-08-30T18:00:20;22.10;66.40
1796;DHT22;895;48.230;11.678;2022-08-30T18:02:47;22.00;66.50
1796;DHT22;895;48.230;11.678;2022-08-30T18:05:14;21.90;66.60
1796;DHT22;895;48.230;11.678;2022-08-30T18:07:40;21.90;66.60
1796;DHT22;895;48.230;11.678;2022-08-30T18:10:07;21.80;66.70
1796;DHT22;895;48.230;11.678;2022-08-30T18:12:34;21.60;66.60
1796;DHT22;895;48.230;11.678;2022-08-30T18:15:01;21.50;66.70
1796;DHT22;895;48.230;11.678;2022-08-30T18:17:29;21.40;66.80
1796;DHT22;895;48.230;11.678;2022-08-30T18:19:56;21.20;66.80
1796;DHT22;895;48.230;11.678;2022-08-30T18:22:23;21.10;67.00
1796;DHT22;895;48.230;11.678;2022-08-30T18:24:50;21.00;67.10
1796;DHT22;895;48.230;11.678;2022-08-30T18:27:17;20.90;67.10
1796;DHT22;895;48.230;11.678;2022-08-30T18:29:44;20.80;67.30
1796;DHT22;895;48.230;11.678;2022-08-30T18:32:11;20.70;67.40
1796;DHT22;895;48.230;11.678;2022-08-30T18:34:39;20.70;67.50
1796;DHT22;895;48.230;11.678;2022-08-30T18:37:07;20.60;67.60
1796;DHT22;895;48.230;11.678;2022-08-30T18:39:34;20.50;67.70
1796;DHT22;895;48.230;11.678;2022-08-30T18:42:02;20.40;67.80
1796;DHT22;895;48.230;11.678;2022-08-30T18:44:31;20.30;67.90
1796;DHT22;895;48.230;11.678;2022-08-30T18:46:59;20.20;68.00
1796;DHT22;895;48.230;11.678;2022-08-30T18:49:27;20.20;68.20
1796;DHT22;895;48.230;11.678;2022-08-30T18:51:55;20.10;68.20
1796;DHT22;895;48.230;11.678;2022-08-30T18:54:22;20.00;68.20
1796;DHT22;895;48.230;11.678;2022-08-30T18:56:49;19.90;68.40
1796;DHT22;895;48.230;11.678;2022-08-30T18:59:16;19.90;68.50
1796;DHT22;895;48.230;11.678;2022-08-30T19:01:43;19.90;68.60
1796;DHT22;895;48.230;11.678;2022-08-30T19:04:11;19.80;68.50
1796;DHT22;895;48.230;11.678;2022-08-30T19:06:40;19.70;68.60
1796;DHT22;895;48.230;11.678;2022-08-30T19:09:08;19.70;68.80
1796;DHT22;895;48.230;11.678;2022-08-30T19:11:35;19.60;68.90
1796;DHT22;895;48.230;11.678;2022-08-30T19:14:02;19.50;68.90
1796;DHT22;895;48.230;11.678;2022-08-30T19:16:29;19.50;69.20
1796;DHT22;895;48.230;11.678;2022-08-30T19:18:56;19.50;69.20
1796;DHT22;895;48.230;11.678;2022-08-30T19:21:23;19.50;69.50
1796;DHT22;895;48.230;11.678;2022-08-30T19:23:50;19.40;69.40
1796;DHT22;895;48.230;11.678;2022-08-30T19:26:18;19.40;69.60
1796;DHT22;895;48.230;11.678;2022-08-30T19:28:45;19.40;69.70
1796;DHT22;895;48.230;11.678;2022-08-30T19:31:11;19.40;69.70
1796;DHT22;895;48.230;11.678;2022-08-30T19:33:38;19.40;69.70
1796;DHT22;895;48.230;11.678;2022-08-30T19:36:06;19.30;69.80
1796;DHT22;895;48.230;11.678;2022-08-30T19:38:33;19.30;70.00
1796;DHT22;895;48.230;11.678;2022-08-30T19:41:01;19.30;70.00
1796;DHT22;895;48.230;11.678;2022-08-30T19:43:29;19.30;70.10
1796;DHT22;895;48.230;11.678;2022-08-30T19:45:57;19.30;70.10
1796;DHT22;895;48.230;11.678;2022-08-30T19:48:25;19.20;70.10
1796;DHT22;895;48.230;11.678;2022-08-30T19:50:52;19.20;70.30
1796;DHT22;895;48.230;11.678;2022-08-30T19:53:19;19.10;70.30
1796;DHT22;895;48.230;11.678;2022-08-30T19:55:46;19.00;70.40
1796;DHT22;895;48.230;11.678;2022-08-30T19:58:13;19.00;70.60
1796;DHT22;895;48.230;11.678;2022-08-30T20:00:41;19.00;70.80
1796;DHT22;895;48.230;11.678;2022-08-30T20:03:10;18.90;70.80
1796;DHT22;895;48.230;11.678;2022-08-30T20:05:36;18.90;70.90
1796;DHT22;895;48.230;11.678;2022-08-30T20:08:03;18.80;70.90
1796;DHT22;895;48.230;11.678;2022-08-30T20:10:30;18.80;71.10
1796;DHT22;895;48.230;11.678;2022-08-30T20:12:56;18.70;71.10
1796;DHT22;895;48.230;11.678;2022-08-30T20:15:23;18.70;71.20
1796;DHT22;895;48.230;11.678;2022-08-30T20:17:52;18.60;71.30
1796;DHT22;895;48.230;11.678;2022-08-30T20:20:20;18.60;71.50
1796;DHT22;895;48.230;11.678;2022-08-30T20:22:46;18.50;71.50
1796;DHT22;895;48.230;11.678;2022-08-30T20:25:14;18.40;71.70
1796;DHT22;895;48.230;11.678;2022-08-30T20:27:41;18.40;71.90
1796;DHT22;895;48.230;11.678;2022-08-30T20:30:09;18.40;72.00
1796;DHT22;895;48.230;11.678;2022-08-30T20:32:37;18.40;72.10
1796;DHT22;895;48.230;11.678;2022-08-30T20:35:06;18.40;72.10
1796;DHT22;895;48.230;11.678;2022-08-30T20:37:33;18.30;72.00
1796;DHT22;895;48.230;11.678;2022-08-30T20:40:00;18.20;72.10
1796;DHT22;895;48.230;11.678;2022-08-30T20:42:28;18.10;72.20
1796;DHT22;895;48.230;11.678;2022-08-30T20:44:54;18.10;72.30
1796;DHT22;895;48.230;11.678;2022-08-30T20:47:22;18.00;72.50
1796;DHT22;895;48.230;11.678;2022-08-30T20:49:48;17.90;72.60
1796;DHT22;895;48.230;11.678;2022-08-30T20:52:16;17.90;72.80
1796;DHT22;895;48.230;11.678;2022-08-30T20:54:43;17.80;73.00
1796;DHT22;895;48.230;11.678;2022-08-30T20:57:10;17.80;73.70
1796;DHT22;895;48.230;11.678;2022-08-30T20:59:37;17.70;73.10
1796;DHT22;895;48.230;11.678;2022-08-30T21:02:04;17.70;73.30
1796;DHT22;895;48.230;11.678;2022-08-30T21:04:31;17.60;73.40
1796;DHT22;895;48.230;11.678;2022-08-30T21:06:58;17.60;73.50
1796;DHT22;895;48.230;11.678;2022-08-30T21:09:26;17.60;73.60
1796;DHT22;895;48.230;11.678;2022-08-30T21:11:53;17.50;73.60
1796;DHT22;895;48.230;11.678;2022-08-30T21:14:20;17.50;73.80
1796;DHT22;895;48.230;11.678;2022-08-30T21:16:47;17.50;73.90
1796;DHT22;895;48.230;11.678;2022-08-30T21:19:14;17.40;74.00
1796;DHT22;895;48.230;11.678;2022-08-30T21:21:40;17.40;74.10
1796;DHT22;895;48.230;11.678;2022-08-30T21:24:08;17.30;74.20
1796;DHT22;895;48.230;11.678;2022-08-30T21:26:36;17.30;74.40
1796;DHT22;895;48.230;11.678;2022-08-30T21:29:04;17.30;74.60
1796;DHT22;895;48.230;11.678;2022-08-30T21:31:31;17.30;74.60
1796;DHT22;895;48.230;11.678;2022-08-30T21:33:58;17.30;74.70
1796;DHT22;895;48.230;11.678;2022-08-30T21:36:26;17.30;75.00
1796;DHT22;895;48.230;11.678;2022-08-30T21:39:13;17.30;75.10
1796;DHT22;895;48.230;11.678;2022-08-30T21:41:41;17.30;75.00
1796;DHT22;895;48.230;11.678;2022-08-30T21:44:11;17.30;75.10
1796;DHT22;895;48.230;11.678;2022-08-30T21:46:38;17.30;75.20
1796;DHT22;895;48.230;11.678;2022-08-30T21:49:07;17.20;75.20
1796;DHT22;895;48.230;11.678;2022-08-30T21:51:36;17.20;75.30
1796;DHT22;895;48.230;11.678;2022-08-30T21:54:03;17.20;76.20
1796;DHT22;895;48.230;11.678;2022-08-30T21:56:32;17.20;75.60
1796;DHT22;895;48.230;11.678;2022-08-30T21:59:01;17.20;75.70
1796;DHT22;895;48.230;11.678;2022-08-30T22:01:28;17.20;75.80
1796;DHT22;895;48.230;11.678;2022-08-30T22:03:58;17.20;75.90
1796;DHT22;895;48.230;11.678;2022-08-30T22:06:26;17.20;75.90
1796;DHT22;895;48.230;11.678;2022-08-30T22:08:53;17.10;76.00
1796;DHT22;895;48.230;11.678;2022-08-30T22:11:23;17.10;76.00
1796;DHT22;895;48.230;11.678;2022-08-30T22:13:51;17.00;76.10
1796;DHT22;895;48.230;11.678;2022-08-30T22:16:20;17.00;76.30
1796;DHT22;895;48.230;11.678;2022-08-30T22:18:48;17.00;76.50
1796;DHT22;895;48.230;11.678;2022-08-30T22:21:17;17.00;76.70
1796;DHT22;895;48.230;11.678;2022-08-30T22:23:44;17.00;76.60
1796;DHT22;895;48.230;11.678;2022-08-30T22:26:13;17.10;76.80
1796;DHT22;895;48.230;11.678;2022-08-30T22:28:40;17.00;76.80
1796;DHT22;895;48.230;11.678;2022-08-30T22:31:09;17.00;76.90
1796;DHT22;895;48.230;11.678;2022-08-30T22:33:38;17.00;77.00
1796;DHT22;895;48.230;11.678;2022-08-30T22:36:06;16.90;77.00
1796;DHT22;895;48.230;11.678;2022-08-30T22:38:33;16.90;77.30
1796;DHT22;895;48.230;11.678;2022-08-30T22:41:00;16.90;77.40
1796;DHT22;895;48.230;11.678;2022-08-30T22:43:27;16.90;77.60
1796;DHT22;895;48.230;11.678;2022-08-30T22:45:56;16.90;77.60
1796;DHT22;895;48.230;11.678;2022-08-30T22:48:23;16.90;77.70
1796;DHT22;895;48.230;11.678;2022-08-30T22:50:51;16.80;77.60
1796;DHT22;895;48.230;11.678;2022-08-30T22:53:18;16.80;77.80
1796;DHT22;895;48.230;11.678;2022-08-30T22:55:45;16.80;77.80
1796;DHT22;895;48.230;11.678;2022-08-30T22:58:11;16.70;77.90
1796;DHT22;895;48.230;11.678;2022-08-30T23:00:39;16.70;78.00
1796;DHT22;895;48.230;11.678;2022-08-30T23:03:07;16.70;78.20
1796;DHT22;895;48.230;11.678;2022-08-30T23:05:34;16.60;78.30
1796;DHT22;895;48.230;11.678;2022-08-30T23:08:03;16.60;78.50
1796;DHT22;895;48.230;11.678;2022-08-30T23:10:31;16.60;78.60
1796;DHT22;895;48.230;11.678;2022-08-30T23:12:58;16.70;78.80
1796;DHT22;895;48.230;11.678;2022-08-30T23:15:26;16.70;78.90
1796;DHT22;895;48.230;11.678;2022-08-30T23:17:53;16.70;78.90
1796;DHT22;895;48.230;11.678;2022-08-30T23:20:21;16.60;78.80
1796;DHT22;895;48.230;11.678;2022-08-30T23:22:48;16.60;78.90
1796;DHT22;895;48.230;11.678;2022-08-30T23:25:24;16.60;79.10
1796;DHT22;895;48.230;11.678;2022-08-30T23:28:08;16.60;79.20
1796;DHT22;895;48.230;11.678;2022-08-30T23:30:53;16.50;79.20
1796;DHT22;895;48.230;11.678;2022-08-30T23:33:37;16.50;79.40
1796;DHT22;895;48.230;11.678;2022-08-30T23:36:21;16.50;79.60
1796;DHT22;895;48.230;11.678;2022-08-30T23:39:05;16.60;79.70
1796;DHT22;895;48.230;11.678;2022-08-30T23:41:51;16.60;79.70
1796;DHT22;895;48.230;11.678;2022-08-30T23:44:35;16.60;79.70
1796;DHT22;895;48.230;11.678;2022-08-30T23:47:19;16.70;79.90
1796;DHT22;895;48.230;11.678;2022-08-30T23:50:04;16.70;80.00
1796;DHT22;895;48.230;11.678;2022-08-30T23:52:48;16.70;80.00
1796;DHT22;895;48.230;11.678;2022-08-30T23:55:37;16.70;80.00
1796;DHT22;895;48.230;11.678;2022-08-30T23:58:23;16.70;80.10
